createdAt,value
2019-01-21T00:00:43.020Z,999.16
2019-01-21T00:01:42.924Z,999.19
2019-01-21T00:02:42.948Z,999.15
2019-01-21T00:03:42.970Z,999.18
2019-01-21T00:04:42.998Z,999.18
2019-01-21T00:05:43.017Z,999.18
2019-01-21T00:06:43.039Z,999.19
2019-01-21T00:07:43.067Z,999.16
2019-01-21T00:08:43.086Z,999.18
2019-01-21T00:09:43.110Z,999.23
2019-01-21T00:10:43.132Z,999.13
2019-01-21T00:11:43.157Z,999.12
2019-01-21T00:12:43.179Z,999.11
2019-01-21T00:13:43.205Z,999.15
2019-01-21T00:14:43.226Z,999.13
2019-01-21T00:15:43.272Z,999.14
2019-01-21T00:16:43.272Z,999.14
2019-01-21T00:17:43.295Z,999.14
2019-01-21T00:18:43.319Z,999.10
2019-01-21T00:19:43.343Z,999.14
2019-01-21T00:20:43.473Z,999.18
2019-01-21T00:21:43.393Z,999.15
2019-01-21T00:22:43.413Z,999.21
2019-01-21T00:23:43.434Z,999.19
2019-01-21T00:24:43.458Z,999.16
2019-01-21T00:25:43.483Z,999.18
2019-01-21T00:26:43.505Z,999.16
2019-01-21T00:27:43.528Z,999.15
2019-01-21T00:28:43.552Z,999.20
2019-01-21T00:29:43.576Z,999.19
2019-01-21T00:30:43.599Z,999.17
2019-01-21T00:31:43.621Z,999.19
2019-01-21T00:32:43.645Z,999.18
2019-01-21T00:33:43.670Z,999.16
2019-01-21T00:34:43.692Z,999.23
2019-01-21T00:35:43.717Z,999.22
2019-01-21T00:36:43.739Z,999.22
2019-01-21T00:37:43.765Z,999.21
2019-01-21T00:38:43.786Z,999.20
2019-01-21T00:39:43.811Z,999.21
2019-01-21T00:40:43.832Z,999.20
2019-01-21T00:41:43.857Z,999.20
2019-01-21T00:42:43.880Z,999.20
2019-01-21T00:43:43.903Z,999.21
2019-01-21T00:44:43.928Z,999.20
2019-01-21T00:45:43.952Z,999.18
2019-01-21T00:46:43.973Z,999.24
2019-01-21T00:47:43.996Z,999.22
2019-01-21T00:48:44.021Z,999.23
2019-01-21T00:49:44.045Z,999.19
2019-01-21T00:50:44.069Z,999.26
2019-01-21T00:51:44.091Z,999.24
2019-01-21T00:52:44.116Z,999.22
2019-01-21T00:53:44.139Z,999.26
2019-01-21T00:54:44.161Z,999.30
2019-01-21T00:55:44.185Z,999.28
2019-01-21T00:56:44.208Z,999.23
2019-01-21T00:57:44.234Z,999.25
2019-01-21T00:58:44.258Z,999.25
2019-01-21T00:59:44.280Z,999.23
2019-01-21T01:00:44.303Z,999.22
2019-01-21T01:01:44.327Z,999.24
2019-01-21T01:02:44.352Z,999.25
2019-01-21T01:03:44.375Z,999.25
2019-01-21T01:04:44.398Z,999.29
2019-01-21T01:05:44.420Z,999.29
2019-01-21T01:06:44.446Z,999.25
2019-01-21T01:07:44.469Z,999.27
2019-01-21T01:08:44.497Z,999.28
2019-01-21T01:09:44.516Z,999.28
2019-01-21T01:10:44.541Z,999.24
2019-01-21T01:11:44.563Z,999.31
2019-01-21T01:12:44.588Z,999.32
2019-01-21T01:13:44.610Z,999.35
2019-01-21T01:14:44.633Z,999.35
2019-01-21T01:15:44.660Z,999.36
2019-01-21T01:16:44.680Z,999.35
2019-01-21T01:17:44.705Z,999.37
2019-01-21T01:18:44.726Z,999.38
2019-01-21T01:19:44.751Z,999.43
2019-01-21T01:20:44.773Z,999.42
2019-01-21T01:21:44.798Z,999.41
2019-01-21T01:22:44.822Z,999.39
2019-01-21T01:23:44.844Z,999.41
2019-01-21T01:24:44.869Z,999.43
2019-01-21T01:25:44.891Z,999.47
2019-01-21T01:26:44.915Z,999.47
2019-01-21T01:27:44.939Z,999.45
2019-01-21T01:28:44.961Z,999.45
2019-01-21T01:29:44.984Z,999.47
2019-01-21T01:30:45.008Z,999.50
2019-01-21T01:31:45.032Z,999.48
2019-01-21T01:32:45.058Z,999.48
2019-01-21T01:33:45.077Z,999.47
2019-01-21T01:34:45.100Z,999.47
2019-01-21T01:35:45.124Z,999.44
2019-01-21T01:36:45.150Z,999.49
2019-01-21T01:37:45.171Z,999.50
2019-01-21T01:38:45.192Z,999.52
2019-01-21T01:39:45.217Z,999.53
2019-01-21T01:40:45.240Z,999.51
2019-01-21T01:41:45.263Z,999.52
2019-01-21T01:42:45.286Z,999.52
2019-01-21T01:43:45.310Z,999.58
2019-01-21T01:44:45.335Z,999.56
2019-01-21T01:45:45.356Z,999.59
2019-01-21T01:46:45.379Z,999.56
2019-01-21T01:47:45.404Z,999.61
2019-01-21T01:48:46.604Z,999.54
2019-01-21T01:49:45.448Z,999.55
2019-01-21T01:50:45.471Z,999.55
2019-01-21T01:51:45.494Z,999.54
2019-01-21T01:52:45.519Z,999.60
2019-01-21T01:53:45.542Z,999.55
2019-01-21T01:54:45.564Z,999.58
2019-01-21T01:55:45.587Z,999.53
2019-01-21T01:56:45.611Z,999.58
2019-01-21T01:57:45.634Z,999.53
2019-01-21T01:58:45.655Z,999.54
2019-01-21T01:59:45.679Z,999.51
2019-01-21T02:00:45.700Z,999.50
2019-01-21T02:01:45.727Z,999.51
2019-01-21T02:02:45.747Z,999.57
2019-01-21T02:03:45.771Z,999.57
2019-01-21T02:04:45.793Z,999.59
2019-01-21T02:05:45.816Z,999.58
2019-01-21T02:06:45.840Z,999.54
2019-01-21T02:07:45.863Z,999.54
2019-01-21T02:08:45.885Z,999.54
2019-01-21T02:09:45.908Z,999.50
2019-01-21T02:10:45.931Z,999.50
2019-01-21T02:11:45.956Z,999.45
2019-01-21T02:12:45.975Z,999.46
2019-01-21T02:13:45.999Z,999.45
2019-01-21T02:14:46.023Z,999.44
2019-01-21T02:15:46.048Z,999.49
2019-01-21T02:16:46.069Z,999.47
2019-01-21T02:17:51.984Z,999.44
2019-01-21T02:18:46.116Z,999.48
2019-01-21T02:19:46.138Z,999.48
2019-01-21T02:20:46.161Z,999.46
2019-01-21T02:21:46.193Z,999.45
2019-01-21T02:22:46.207Z,999.43
2019-01-21T02:23:46.274Z,999.44
2019-01-21T02:24:46.253Z,999.50
2019-01-21T02:25:46.277Z,999.45
2019-01-21T02:26:46.299Z,999.44
2019-01-21T02:27:46.323Z,999.45
2019-01-21T02:28:46.347Z,999.45
2019-01-21T02:29:46.370Z,999.45
2019-01-21T02:30:46.392Z,999.47
2019-01-21T02:31:46.492Z,999.44
2019-01-21T02:32:46.440Z,999.46
2019-01-21T02:33:46.464Z,999.44
2019-01-21T02:34:46.485Z,999.45
2019-01-21T02:35:46.508Z,999.50
2019-01-21T02:36:46.533Z,999.50
2019-01-21T02:37:46.556Z,999.50
2019-01-21T02:38:46.579Z,999.46
2019-01-21T02:39:46.603Z,999.46
2019-01-21T02:40:46.625Z,999.51
2019-01-21T02:41:46.650Z,999.48
2019-01-21T02:42:46.671Z,999.47
2019-01-21T02:43:46.694Z,999.48
2019-01-21T02:44:46.718Z,999.47
2019-01-21T02:45:46.742Z,999.49
2019-01-21T02:46:46.769Z,999.49
2019-01-21T02:47:46.789Z,999.47
2019-01-21T02:48:46.811Z,999.50
2019-01-21T02:49:46.836Z,999.48
2019-01-21T02:50:46.858Z,999.48
2019-01-21T02:51:46.883Z,999.44
2019-01-21T02:52:46.905Z,999.49
2019-01-21T02:53:46.931Z,999.42
2019-01-21T02:54:46.951Z,999.47
2019-01-21T02:55:46.975Z,999.43
2019-01-21T02:56:47.000Z,999.45
2019-01-21T02:57:47.024Z,999.47
2019-01-21T02:58:47.045Z,999.46
2019-01-21T02:59:47.069Z,999.46
2019-01-21T03:00:47.092Z,999.47
2019-01-21T03:01:47.117Z,999.51
2019-01-21T03:02:47.138Z,999.42
2019-01-21T03:03:47.162Z,999.47
2019-01-21T03:04:47.187Z,999.50
2019-01-21T03:05:47.210Z,999.45
2019-01-21T03:06:47.232Z,999.47
2019-01-21T03:07:47.258Z,999.47
2019-01-21T03:08:47.282Z,999.46
2019-01-21T03:09:47.302Z,999.45
2019-01-21T03:10:47.327Z,999.45
2019-01-21T03:11:47.349Z,999.52
2019-01-21T03:12:47.372Z,999.52
2019-01-21T03:13:47.397Z,999.50
2019-01-21T03:14:47.423Z,999.47
2019-01-21T03:15:47.442Z,999.52
2019-01-21T03:16:47.465Z,999.47
2019-01-21T03:17:47.490Z,999.50
2019-01-21T03:18:47.512Z,999.47
2019-01-21T03:19:47.535Z,999.50
2019-01-21T03:20:47.559Z,999.48
2019-01-21T03:21:47.585Z,999.51
2019-01-21T03:22:47.607Z,999.45
2019-01-21T03:23:47.630Z,999.48
2019-01-21T03:24:47.653Z,999.48
2019-01-21T03:25:47.675Z,999.52
2019-01-21T03:26:47.698Z,999.50
2019-01-21T03:27:47.724Z,999.49
2019-01-21T03:28:47.747Z,999.50
2019-01-21T03:29:47.772Z,999.50
2019-01-21T03:30:47.798Z,999.51
2019-01-21T03:31:47.823Z,999.53
2019-01-21T03:32:47.840Z,999.55
2019-01-21T03:33:47.864Z,999.54
2019-01-21T03:34:47.892Z,999.55
2019-01-21T03:35:47.910Z,999.57
2019-01-21T03:36:47.933Z,999.57
2019-01-21T03:37:47.958Z,999.56
2019-01-21T03:38:47.978Z,999.55
2019-01-21T03:39:48.002Z,999.56
2019-01-21T03:40:48.025Z,999.60
2019-01-21T03:41:48.050Z,999.58
2019-01-21T03:42:48.072Z,999.60
2019-01-21T03:43:48.121Z,999.59
2019-01-21T03:44:48.118Z,999.56
2019-01-21T03:45:48.142Z,999.56
2019-01-21T03:46:48.164Z,999.58
2019-01-21T03:47:48.189Z,999.62
2019-01-21T03:48:48.214Z,999.54
2019-01-21T03:49:48.234Z,999.58
2019-01-21T03:50:48.258Z,999.58
2019-01-21T03:51:48.282Z,999.56
2019-01-21T03:52:48.304Z,999.54
2019-01-21T03:53:48.344Z,999.58
2019-01-21T03:54:48.350Z,999.56
2019-01-21T03:55:48.376Z,999.55
2019-01-21T03:56:48.399Z,999.58
2019-01-21T03:57:48.423Z,999.52
2019-01-21T03:58:48.444Z,999.53
2019-01-21T03:59:48.619Z,999.55
2019-01-21T04:00:48.493Z,999.55
2019-01-21T04:01:48.513Z,999.56
2019-01-21T04:02:48.536Z,999.51
2019-01-21T04:03:48.559Z,999.47
2019-01-21T04:04:48.584Z,999.46
2019-01-21T04:05:48.607Z,999.50
2019-01-21T04:06:48.630Z,999.49
2019-01-21T04:07:48.652Z,999.51
2019-01-21T04:08:48.676Z,999.52
2019-01-21T04:09:48.700Z,999.52
2019-01-21T04:10:48.724Z,999.53
2019-01-21T04:11:48.744Z,999.53
2019-01-21T04:12:48.770Z,999.56
2019-01-21T04:13:48.791Z,999.46
2019-01-21T04:14:48.815Z,999.53
2019-01-21T04:15:48.837Z,999.54
2019-01-21T04:16:48.860Z,999.52
2019-01-21T04:17:48.884Z,999.54
2019-01-21T04:18:48.907Z,999.54
2019-01-21T04:19:48.929Z,999.49
2019-01-21T04:20:48.954Z,999.55
2019-01-21T04:21:48.977Z,999.56
2019-01-21T04:22:49.001Z,999.51
2019-01-21T04:23:49.028Z,999.55
2019-01-21T04:24:49.049Z,999.56
2019-01-21T04:25:49.070Z,999.58
2019-01-21T04:26:49.092Z,999.60
2019-01-21T04:27:49.116Z,999.63
2019-01-21T04:28:49.141Z,999.64
2019-01-21T04:29:49.161Z,999.64
2019-01-21T04:30:49.185Z,999.58
2019-01-21T04:31:49.208Z,999.65
2019-01-21T04:32:49.231Z,999.65
2019-01-21T04:33:49.255Z,999.67
2019-01-21T04:34:49.276Z,999.65
2019-01-21T04:35:49.301Z,999.64
2019-01-21T04:36:49.325Z,999.65
2019-01-21T04:37:49.348Z,999.61
2019-01-21T04:38:49.374Z,999.63
2019-01-21T04:39:49.393Z,999.70
2019-01-21T04:40:49.416Z,999.73
2019-01-21T04:41:49.439Z,999.74
2019-01-21T04:42:49.462Z,999.70
2019-01-21T04:43:49.489Z,999.78
2019-01-21T04:44:49.516Z,999.70
2019-01-21T04:45:49.535Z,999.74
2019-01-21T04:46:49.555Z,999.75
2019-01-21T04:47:49.576Z,999.72
2019-01-21T04:48:49.601Z,999.76
2019-01-21T04:49:49.626Z,999.74
2019-01-21T04:50:49.648Z,999.71
2019-01-21T04:51:49.670Z,999.77
2019-01-21T04:52:49.866Z,999.79
2019-01-21T04:53:49.717Z,999.77
2019-01-21T04:54:49.741Z,999.76
2019-01-21T04:55:49.762Z,999.83
2019-01-21T04:56:49.785Z,999.80
2019-01-21T04:57:49.808Z,999.78
2019-01-21T04:58:49.837Z,999.79
2019-01-21T04:59:49.855Z,999.80
2019-01-21T05:00:49.878Z,999.76
2019-01-21T05:01:49.909Z,999.75
2019-01-21T05:02:49.924Z,999.79
2019-01-21T05:03:50.143Z,999.82
2019-01-21T05:04:49.970Z,999.82
2019-01-21T05:05:49.996Z,999.81
2019-01-21T05:06:50.016Z,999.81
2019-01-21T05:07:50.041Z,999.86
2019-01-21T05:08:50.061Z,999.85
2019-01-21T05:09:50.084Z,999.89
2019-01-21T05:10:50.110Z,999.84
2019-01-21T05:11:50.131Z,999.85
2019-01-21T05:12:50.153Z,999.92
2019-01-21T05:13:50.176Z,999.91
2019-01-21T05:14:50.200Z,999.89
2019-01-21T05:15:50.234Z,999.90
2019-01-21T05:16:50.246Z,999.87
2019-01-21T05:17:50.291Z,999.90
2019-01-21T05:18:50.290Z,999.92
2019-01-21T05:19:50.314Z,999.91
2019-01-21T05:20:50.337Z,999.92
2019-01-21T05:21:50.362Z,999.91
2019-01-21T05:22:50.382Z,999.93
2019-01-21T05:23:50.407Z,999.90
2019-01-21T05:24:50.428Z,999.93
2019-01-21T05:25:50.452Z,999.93
2019-01-21T05:26:50.493Z,999.96
2019-01-21T05:27:50.496Z,999.99
2019-01-21T05:28:50.519Z,999.97
2019-01-21T05:29:50.543Z,1000.00
2019-01-21T05:30:50.565Z,999.96
2019-01-21T05:31:50.588Z,999.98
2019-01-21T05:32:50.610Z,1000.00
2019-01-21T05:33:50.633Z,999.96
2019-01-21T05:34:50.654Z,999.99
2019-01-21T05:35:50.678Z,999.96
2019-01-21T05:36:50.701Z,999.95
2019-01-21T05:37:50.725Z,999.98
2019-01-21T05:38:50.745Z,1000.00
2019-01-21T05:39:50.770Z,999.99
2019-01-21T05:40:50.791Z,999.94
2019-01-21T05:41:50.814Z,999.97
2019-01-21T05:42:50.835Z,1000.01
2019-01-21T05:43:50.858Z,1000.01
2019-01-21T05:44:50.881Z,1000.03
2019-01-21T05:45:50.905Z,1000.05
2019-01-21T05:46:50.925Z,1000.10
2019-01-21T05:47:50.954Z,1000.15
2019-01-21T05:48:50.974Z,1000.15
2019-01-21T05:49:51.046Z,1000.15
2019-01-21T05:50:51.154Z,1000.12
2019-01-21T05:51:51.044Z,1000.16
2019-01-21T05:52:51.062Z,1000.11
2019-01-21T05:53:51.085Z,1000.19
2019-01-21T05:54:51.107Z,1000.20
2019-01-21T05:55:51.130Z,1000.21
2019-01-21T05:56:51.151Z,1000.26
2019-01-21T05:57:51.175Z,1000.24
2019-01-21T05:58:51.196Z,1000.25
2019-01-21T05:59:51.221Z,1000.31
2019-01-21T06:00:51.242Z,1000.29
2019-01-21T06:01:51.265Z,1000.25
2019-01-21T06:02:51.287Z,1000.23
2019-01-21T06:03:51.308Z,1000.26
2019-01-21T06:04:51.343Z,1000.22
2019-01-21T06:05:51.356Z,1000.25
2019-01-21T06:06:51.375Z,1000.26
2019-01-21T06:07:51.400Z,1000.26
2019-01-21T06:08:51.422Z,1000.31
2019-01-21T06:09:51.445Z,1000.32
2019-01-21T06:10:51.465Z,1000.33
2019-01-21T06:11:51.489Z,1000.29
2019-01-21T06:12:51.512Z,1000.32
2019-01-21T06:13:51.535Z,1000.33
2019-01-21T06:14:51.556Z,1000.35
2019-01-21T06:15:51.578Z,1000.39
2019-01-21T06:16:51.603Z,1000.37
2019-01-21T06:17:51.625Z,1000.41
2019-01-21T06:18:57.177Z,1000.40
2019-01-21T06:19:51.673Z,1000.38
2019-01-21T06:20:51.697Z,1000.42
2019-01-21T06:21:51.715Z,1000.43
2019-01-21T06:22:51.737Z,1000.40
2019-01-21T06:23:51.759Z,1000.41
2019-01-21T06:24:51.782Z,1000.43
2019-01-21T06:25:51.807Z,1000.42
2019-01-21T06:26:51.826Z,1000.45
2019-01-21T06:27:51.849Z,1000.40
2019-01-21T06:28:51.873Z,1000.47
2019-01-21T06:29:51.895Z,1000.43
2019-01-21T06:30:51.921Z,1000.49
2019-01-21T06:31:51.942Z,1000.50
2019-01-21T06:32:51.962Z,1000.51
2019-01-21T06:33:51.985Z,1000.49
2019-01-21T06:34:52.006Z,1000.48
2019-01-21T06:35:52.030Z,1000.50
2019-01-21T06:36:52.052Z,1000.47
2019-01-21T06:37:52.076Z,1000.48
2019-01-21T06:38:52.097Z,1000.52
2019-01-21T06:39:52.120Z,1000.57
2019-01-21T06:40:52.142Z,1000.51
2019-01-21T06:41:52.165Z,1000.57
2019-01-21T06:42:52.187Z,1000.53
2019-01-21T06:43:52.209Z,1000.52
2019-01-21T06:44:52.236Z,1000.52
2019-01-21T06:45:52.255Z,1000.51
2019-01-21T06:46:52.276Z,1000.56
2019-01-21T06:47:52.300Z,1000.58
2019-01-21T06:48:52.322Z,1000.59
2019-01-21T06:49:52.344Z,1000.60
2019-01-21T06:50:52.368Z,1000.61
2019-01-21T06:51:52.392Z,1000.64
2019-01-21T06:52:52.412Z,1000.63
2019-01-21T06:53:52.435Z,1000.66
2019-01-21T06:54:52.458Z,1000.67
2019-01-21T06:55:52.479Z,1000.66
2019-01-21T06:56:52.502Z,1000.72
2019-01-21T06:57:52.526Z,1000.69
2019-01-21T06:58:52.548Z,1000.72
2019-01-21T06:59:52.571Z,1000.73
2019-01-21T07:00:52.593Z,1000.73
2019-01-21T07:01:52.618Z,1000.72
2019-01-21T07:02:52.637Z,1000.72
2019-01-21T07:03:52.660Z,1000.71
2019-01-21T07:04:52.707Z,1000.77
2019-01-21T07:05:52.705Z,1000.76
2019-01-21T07:06:52.728Z,1000.81
2019-01-21T07:07:52.749Z,1000.81
2019-01-21T07:08:52.773Z,1000.85
2019-01-21T07:09:52.796Z,1000.87
2019-01-21T07:10:52.816Z,1000.87
2019-01-21T07:11:52.839Z,1000.89
2019-01-21T07:12:52.861Z,1000.88
2019-01-21T07:13:52.885Z,1000.89
2019-01-21T07:14:52.905Z,1000.86
2019-01-21T07:15:52.929Z,1000.92
2019-01-21T07:16:52.953Z,1000.90
2019-01-21T07:17:52.974Z,1000.94
2019-01-21T07:18:52.995Z,1000.91
2019-01-21T07:19:53.021Z,1000.89
2019-01-21T07:20:53.042Z,1000.90
2019-01-21T07:21:53.064Z,1000.94
2019-01-21T07:22:53.087Z,1000.94
2019-01-21T07:23:53.148Z,1000.93
2019-01-21T07:24:53.131Z,1000.93
2019-01-21T07:25:53.155Z,1000.98
2019-01-21T07:26:53.176Z,1000.99
2019-01-21T07:27:53.199Z,1000.96
2019-01-21T07:28:53.224Z,1001.01
2019-01-21T07:29:53.245Z,1000.99
2019-01-21T07:30:53.266Z,1001.00
2019-01-21T07:31:53.290Z,1000.99
2019-01-21T07:32:53.312Z,1000.98
2019-01-21T07:33:53.335Z,1001.00
2019-01-21T07:34:53.358Z,1001.05
2019-01-21T07:35:53.380Z,1001.03
2019-01-21T07:36:53.405Z,1001.07
2019-01-21T07:37:53.427Z,1001.05
2019-01-21T07:38:53.451Z,1001.07
2019-01-21T07:39:53.472Z,1001.03
2019-01-21T07:40:53.496Z,1001.04
2019-01-21T07:41:53.517Z,1001.08
2019-01-21T07:42:53.539Z,1001.03
2019-01-21T07:43:53.563Z,1001.07
2019-01-21T07:44:53.586Z,1001.05
2019-01-21T07:45:53.608Z,1001.03
2019-01-21T07:46:53.629Z,1001.01
2019-01-21T07:47:53.653Z,1001.05
2019-01-21T07:48:53.676Z,1001.06
2019-01-21T07:49:53.699Z,1001.05
2019-01-21T07:50:53.728Z,1001.06
2019-01-21T07:51:53.744Z,1001.05
2019-01-21T07:52:53.767Z,1001.05
2019-01-21T07:53:53.789Z,1001.04
2019-01-21T07:54:53.812Z,1001.06
2019-01-21T07:55:53.834Z,1001.05
2019-01-21T07:56:53.857Z,1001.07
2019-01-21T07:57:53.880Z,1001.08
2019-01-21T07:58:53.903Z,1001.09
2019-01-21T07:59:53.926Z,1001.10
2019-01-21T08:00:53.951Z,1001.12
2019-01-21T08:01:53.971Z,1001.14
2019-01-21T08:02:53.993Z,1001.16
2019-01-21T08:03:54.017Z,1001.13
2019-01-21T08:04:54.041Z,1001.14
2019-01-21T08:05:54.062Z,1001.12
2019-01-21T08:06:54.085Z,1001.14
2019-01-21T08:07:54.108Z,1001.15
2019-01-21T08:08:54.131Z,1001.16
2019-01-21T08:09:54.154Z,1001.10
2019-01-21T08:10:54.174Z,1001.14
2019-01-21T08:11:54.197Z,1001.15
2019-01-21T08:12:54.224Z,1001.14
2019-01-21T08:13:54.242Z,1001.15
2019-01-21T08:14:54.265Z,1001.17
2019-01-21T08:15:54.288Z,1001.19
2019-01-21T08:16:54.312Z,1001.14
2019-01-21T08:17:54.335Z,1001.21
2019-01-21T08:18:54.357Z,1001.21
2019-01-21T08:19:54.379Z,1001.23
2019-01-21T08:20:54.403Z,1001.22
2019-01-21T08:21:54.425Z,1001.19
2019-01-21T08:22:54.447Z,1001.25
2019-01-21T08:23:54.471Z,1001.26
2019-01-21T08:24:54.497Z,1001.27
2019-01-21T08:25:54.516Z,1001.27
2019-01-21T08:26:54.538Z,1001.31
2019-01-21T08:27:54.561Z,1001.28
2019-01-21T08:28:54.584Z,1001.31
2019-01-21T08:29:54.606Z,1001.30
2019-01-21T08:30:54.629Z,1001.31
2019-01-21T08:31:54.652Z,1001.34
2019-01-21T08:32:54.677Z,1001.30
2019-01-21T08:33:54.698Z,1001.32
2019-01-21T08:34:54.719Z,1001.31
2019-01-21T08:35:54.743Z,1001.32
2019-01-21T08:36:54.765Z,1001.30
2019-01-21T08:37:54.789Z,1001.30
2019-01-21T08:38:54.812Z,1001.30
2019-01-21T08:39:54.833Z,1001.29
2019-01-21T08:40:54.858Z,1001.33
2019-01-21T08:41:54.880Z,1001.32
2019-01-21T08:42:54.903Z,1001.28
2019-01-21T08:43:54.925Z,1001.30
2019-01-21T08:44:54.948Z,1001.32
2019-01-21T08:45:54.971Z,1001.32
2019-01-21T08:46:54.994Z,1001.33
2019-01-21T08:47:55.016Z,1001.31
2019-01-21T08:48:55.040Z,1001.35
2019-01-21T08:49:55.062Z,1001.35
2019-01-21T08:50:55.084Z,1001.28
2019-01-21T08:51:55.109Z,1001.31
2019-01-21T08:52:55.133Z,1001.35
2019-01-21T08:53:55.154Z,1001.32
2019-01-21T08:54:55.176Z,1001.32
2019-01-21T08:55:55.199Z,1001.32
2019-01-21T08:56:55.225Z,1001.34
2019-01-21T08:57:55.248Z,1001.35
2019-01-21T08:58:55.268Z,1001.37
2019-01-21T08:59:55.291Z,1001.32
2019-01-21T09:00:55.315Z,1001.32
2019-01-21T09:01:55.340Z,1001.32
2019-01-21T09:02:55.364Z,1001.38
2019-01-21T09:03:55.384Z,1001.32
2019-01-21T09:04:55.408Z,1001.35
2019-01-21T09:05:55.435Z,1001.36
2019-01-21T09:07:00.667Z,1001.33
2019-01-21T09:07:55.476Z,1001.35
2019-01-21T09:08:55.499Z,1001.33
2019-01-21T09:09:55.524Z,1001.41
2019-01-21T09:10:55.545Z,1001.37
2019-01-21T09:11:55.570Z,1001.40
2019-01-21T09:12:55.594Z,1001.38
2019-01-21T09:13:55.617Z,1001.35
2019-01-21T09:14:55.639Z,1001.43
2019-01-21T09:15:55.662Z,1001.42
2019-01-21T09:16:55.686Z,1001.38
2019-01-21T09:17:55.712Z,1001.39
2019-01-21T09:18:55.732Z,1001.43
2019-01-21T09:19:55.759Z,1001.38
2019-01-21T09:20:55.780Z,1001.45
2019-01-21T09:21:55.805Z,1001.43
2019-01-21T09:22:55.825Z,1001.44
2019-01-21T09:23:55.850Z,1001.47
2019-01-21T09:24:55.877Z,1001.43
2019-01-21T09:25:55.898Z,1001.48
2019-01-21T09:26:55.921Z,1001.51
2019-01-21T09:27:55.944Z,1001.55
2019-01-21T09:28:55.967Z,1001.54
2019-01-21T09:29:55.989Z,1001.58
2019-01-21T09:30:56.015Z,1001.60
2019-01-21T09:31:56.038Z,1001.58
2019-01-21T09:32:56.062Z,1001.61
2019-01-21T09:33:56.085Z,1001.61
2019-01-21T09:34:56.108Z,1001.66
2019-01-21T09:35:56.132Z,1001.59
2019-01-21T09:36:56.157Z,1001.59
2019-01-21T09:37:56.182Z,1001.68
2019-01-21T09:38:56.201Z,1001.68
2019-01-21T09:39:56.224Z,1001.72
2019-01-21T09:40:56.249Z,1001.69
2019-01-21T09:41:56.277Z,1001.71
2019-01-21T09:42:56.295Z,1001.74
2019-01-21T09:43:56.319Z,1001.70
2019-01-21T09:44:56.342Z,1001.69
2019-01-21T09:45:56.368Z,1001.71
2019-01-21T09:46:56.391Z,1001.74
2019-01-21T09:47:56.413Z,1001.71
2019-01-21T09:48:56.436Z,1001.74
2019-01-21T09:49:56.460Z,1001.73
2019-01-21T09:50:56.483Z,1001.74
2019-01-21T09:51:56.507Z,1001.75
2019-01-21T09:52:56.532Z,1001.75
2019-01-21T09:53:56.553Z,1001.81
2019-01-21T09:54:56.577Z,1001.76
2019-01-21T09:55:56.854Z,1001.79
2019-01-21T09:56:56.625Z,1001.79
2019-01-21T09:57:56.648Z,1001.79
2019-01-21T09:58:56.671Z,1001.79
2019-01-21T09:59:56.693Z,1001.84
2019-01-21T10:00:56.719Z,1001.80
2019-01-21T10:01:56.744Z,1001.83
2019-01-21T10:02:56.764Z,1001.84
2019-01-21T10:03:56.788Z,1001.83
2019-01-21T10:04:56.813Z,1001.81
2019-01-21T10:05:56.905Z,1001.85
2019-01-21T10:06:56.857Z,1001.88
2019-01-21T10:07:56.881Z,1001.91
2019-01-21T10:08:56.905Z,1001.85
2019-01-21T10:09:56.929Z,1001.86
2019-01-21T10:11:03.202Z,1001.79
2019-01-21T10:11:58.679Z,1001.83
2019-01-21T10:12:56.999Z,1001.79
2019-01-21T10:13:57.022Z,1001.83
2019-01-21T10:14:57.046Z,1001.85
2019-01-21T10:15:57.070Z,1001.84
2019-01-21T10:16:57.095Z,1001.84
2019-01-21T10:17:57.117Z,1001.85
2019-01-21T10:18:57.140Z,1001.88
2019-01-21T10:19:57.164Z,1001.87
2019-01-21T10:20:57.189Z,1001.80
2019-01-21T10:21:57.212Z,1001.84
2019-01-21T10:22:57.235Z,1001.87
2019-01-21T10:23:57.262Z,1001.84
2019-01-21T10:24:57.289Z,1001.88
2019-01-21T10:25:57.307Z,1001.87
2019-01-21T10:26:57.331Z,1001.87
2019-01-21T10:27:57.354Z,1001.89
2019-01-21T10:28:57.379Z,1001.85
2019-01-21T10:29:57.403Z,1001.86
2019-01-21T10:30:57.427Z,1001.88
2019-01-21T10:31:59.431Z,1001.82
2019-01-21T10:32:57.474Z,1001.79
2019-01-21T10:33:57.498Z,1001.85
2019-01-21T10:34:57.521Z,1001.79
2019-01-21T10:35:57.545Z,1001.87
2019-01-21T10:36:57.570Z,1001.86
2019-01-21T10:37:57.594Z,1001.85
2019-01-21T10:38:57.616Z,1001.86
2019-01-21T10:39:57.640Z,1001.85
2019-01-21T10:40:57.664Z,1001.84
2019-01-21T10:41:57.689Z,1001.82
2019-01-21T10:42:57.712Z,1001.83
2019-01-21T10:43:57.735Z,1001.83
2019-01-21T10:44:57.758Z,1001.82
2019-01-21T10:45:57.783Z,1001.78
2019-01-21T10:46:57.807Z,1001.77
2019-01-21T10:47:57.830Z,1001.79
2019-01-21T10:48:57.854Z,1001.79
2019-01-21T10:49:57.878Z,1001.76
2019-01-21T10:50:57.901Z,1001.78
2019-01-21T10:51:57.925Z,1001.78
2019-01-21T10:52:57.950Z,1001.79
2019-01-21T10:53:57.973Z,1001.80
2019-01-21T10:54:57.996Z,1001.82
2019-01-21T10:55:58.024Z,1001.78
2019-01-21T10:56:58.044Z,1001.83
2019-01-21T10:57:58.069Z,1001.78
2019-01-21T10:58:58.091Z,1001.78
2019-01-21T10:59:58.116Z,1001.84
2019-01-21T11:00:58.140Z,1001.78
2019-01-21T11:01:58.163Z,1001.78
2019-01-21T11:02:58.188Z,1001.84
2019-01-21T11:03:58.211Z,1001.80
2019-01-21T11:04:58.236Z,1001.84
2019-01-21T11:05:58.259Z,1001.81
2019-01-21T11:06:58.285Z,1001.87
2019-01-21T11:07:58.307Z,1001.84
2019-01-21T11:08:58.331Z,1001.84
2019-01-21T11:09:58.354Z,1001.85
2019-01-21T11:10:58.377Z,1001.86
2019-01-21T11:11:58.403Z,1001.86
2019-01-21T11:12:58.425Z,1001.87
2019-01-21T11:13:58.452Z,1001.88
2019-01-21T11:14:58.472Z,1001.85
2019-01-21T11:15:58.496Z,1001.84
2019-01-21T11:16:58.519Z,1001.86
2019-01-21T11:17:58.581Z,1001.90
2019-01-21T11:18:58.567Z,1001.90
2019-01-21T11:20:03.929Z,1001.95
2019-01-21T11:20:58.614Z,1001.94
2019-01-21T11:21:58.638Z,1001.94
2019-01-21T11:22:58.660Z,1001.91
2019-01-21T11:23:58.684Z,1001.89
2019-01-21T11:24:58.708Z,1001.88
2019-01-21T11:25:58.730Z,1001.86
2019-01-21T11:26:58.754Z,1001.88
2019-01-21T11:27:58.777Z,1001.90
2019-01-21T11:28:58.801Z,1001.82
2019-01-21T11:29:58.826Z,1001.86
2019-01-21T11:30:58.847Z,1001.86
2019-01-21T11:31:58.871Z,1001.88
2019-01-21T11:32:59.202Z,1001.87
2019-01-21T11:33:58.918Z,1001.78
2019-01-21T11:34:58.940Z,1001.84
2019-01-21T11:35:58.963Z,1001.88
2019-01-21T11:36:58.988Z,1001.84
2019-01-21T11:37:59.010Z,1001.88
2019-01-21T11:38:59.032Z,1001.84
2019-01-21T11:39:59.055Z,1001.80
2019-01-21T11:40:59.082Z,1001.83
2019-01-21T11:41:59.103Z,1001.82
2019-01-21T11:42:59.125Z,1001.82
2019-01-21T11:43:59.148Z,1001.76
2019-01-21T11:44:59.171Z,1001.77
2019-01-21T11:45:59.195Z,1001.72
2019-01-21T11:46:59.218Z,1001.78
2019-01-21T11:47:59.241Z,1001.68
2019-01-21T11:48:59.264Z,1001.67
2019-01-21T11:49:59.291Z,1001.64
2019-01-21T11:50:59.311Z,1001.63
2019-01-21T11:51:59.333Z,1001.64
2019-01-21T11:52:59.357Z,1001.65
2019-01-21T11:53:59.380Z,1001.66
2019-01-21T11:54:59.408Z,1001.68
2019-01-21T11:55:59.426Z,1001.69
2019-01-21T11:56:59.449Z,1001.67
2019-01-21T11:57:59.473Z,1001.65
2019-01-21T11:58:59.531Z,1001.64
2019-01-21T11:59:59.521Z,1001.64
2019-01-21T12:00:59.544Z,1001.64
2019-01-21T12:01:59.566Z,1001.64
2019-01-21T12:02:59.590Z,1001.67
2019-01-21T12:03:59.615Z,1001.63
2019-01-21T12:04:59.637Z,1001.64
2019-01-21T12:05:59.660Z,1001.63
2019-01-21T12:06:59.683Z,1001.65
2019-01-21T12:07:59.707Z,1001.65
2019-01-21T12:08:59.731Z,1001.62
2019-01-21T12:09:59.755Z,1001.67
2019-01-21T12:10:59.779Z,1001.62
2019-01-21T12:11:59.804Z,1001.60
2019-01-21T12:12:59.827Z,1001.59
2019-01-21T12:13:59.849Z,1001.61
2019-01-21T12:14:59.870Z,1001.63
2019-01-21T12:15:59.894Z,1001.60
2019-01-21T12:16:59.921Z,1001.60